sensor_id;sensor_type;location;lat;lon;timestamp;P1;durP1;ratioP1;P2;durP2;ratioP2
66874;SDS011;53784;52.630;4.896;2022-08-04T00:00:43;0.10;;;0.10;;
66874;SDS011;53784;52.630;4.896;2022-08-04T00:03:47;0.10;;;0.10;;
66874;SDS011;53784;52.630;4.896;2022-08-04T00:06:24;0.13;;;0.13;;
66874;SDS011;53784;52.630;4.896;2022-08-04T00:08:56;0.10;;;0.10;;
66874;SDS011;53784;52.630;4.896;2022-08-04T00:11:22;0.10;;;0.10;;
66874;SDS011;53784;52.630;4.896;2022-08-04T00:14:00;0.30;;;0.30;;
66874;SDS011;53784;52.630;4.896;2022-08-04T00:16:36;0.10;;;0.10;;
66874;SDS011;53784;52.630;4.896;2022-08-04T00:19:04;0.10;;;0.10;;
66874;SDS011;53784;52.630;4.896;2022-08-04T00:21:35;0.10;;;0.10;;
66874;SDS011;53784;52.630;4.896;2022-08-04T00:24:03;0.10;;;0.10;;
66874;SDS011;53784;52.630;4.896;2022-08-04T00:26:30;0.15;;;0.15;;
66874;SDS011;53784;52.630;4.896;2022-08-04T00:28:56;0.22;;;0.22;;
66874;SDS011;53784;52.630;4.896;2022-08-04T00:31:22;0.10;;;0.10;;
66874;SDS011;53784;52.630;4.896;2022-08-04T00:33:47;0.10;;;0.10;;
66874;SDS011;53784;52.630;4.896;2022-08-04T00:36:13;0.10;;;0.10;;
66874;SDS011;53784;52.630;4.896;2022-08-04T00:38:40;0.32;;;0.32;;
66874;SDS011;53784;52.630;4.896;2022-08-04T00:41:30;0.10;;;0.10;;
66874;SDS011;53784;52.630;4.896;2022-08-04T00:50:03;0.10;;;0.10;;
66874;SDS011;53784;52.630;4.896;2022-08-04T00:55:17;0.25;;;0.25;;
66874;SDS011;53784;52.630;4.896;2022-08-04T01:00:45;0.10;;;0.10;;
66874;SDS011;53784;52.630;4.896;2022-08-04T01:06:10;0.20;;;0.20;;
66874;SDS011;53784;52.630;4.896;2022-08-04T01:08:44;0.10;;;0.10;;
66874;SDS011;53784;52.630;4.896;2022-08-04T01:11:30;0.10;;;0.10;;
66874;SDS011;53784;52.630;4.896;2022-08-04T01:19:15;0.10;;;0.10;;
66874;SDS011;53784;52.630;4.896;2022-08-04T01:22:01;0.57;;;0.40;;
66874;SDS011;53784;52.630;4.896;2022-08-04T01:24:40;0.10;;;0.10;;
66874;SDS011;53784;52.630;4.896;2022-08-04T01:27:26;0.10;;;0.10;;
66874;SDS011;53784;52.630;4.896;2022-08-04T01:30:06;0.20;;;0.20;;
66874;SDS011;53784;52.630;4.896;2022-08-04T01:32:38;0.10;;;0.10;;
66874;SDS011;53784;52.630;4.896;2022-08-04T01:37:53;0.10;;;0.10;;
66874;SDS011;53784;52.630;4.896;2022-08-04T01:40:26;0.10;;;0.10;;
66874;SDS011;53784;52.630;4.896;2022-08-04T01:42:52;0.10;;;0.10;;
66874;SDS011;53784;52.630;4.896;2022-08-04T01:45:18;0.10;;;0.10;;
66874;SDS011;53784;52.630;4.896;2022-08-04T01:47:52;0.20;;;0.20;;
66874;SDS011;53784;52.630;4.896;2022-08-04T01:50:18;0.22;;;0.22;;
66874;SDS011;53784;52.630;4.896;2022-08-04T01:52:44;0.10;;;0.10;;
66874;SDS011;53784;52.630;4.896;2022-08-04T01:55:11;0.15;;;0.15;;
66874;SDS011;53784;52.630;4.896;2022-08-04T01:57:41;0.75;;;0.50;;
66874;SDS011;53784;52.630;4.896;2022-08-04T02:00:07;0.10;;;0.10;;
66874;SDS011;53784;52.630;4.896;2022-08-04T02:02:33;0.30;;;0.30;;
66874;SDS011;53784;52.630;4.896;2022-08-04T02:04:58;0.32;;;0.20;;
66874;SDS011;53784;52.630;4.896;2022-08-04T02:07:42;0.10;;;0.10;;
66874;SDS011;53784;52.630;4.896;2022-08-04T02:10:22;0.30;;;0.30;;
66874;SDS011;53784;52.630;4.896;2022-08-04T02:21:40;0.10;;;0.10;;
66874;SDS011;53784;52.630;4.896;2022-08-04T02:24:10;0.28;;;0.22;;
66874;SDS011;53784;52.630;4.896;2022-08-04T02:26:39;0.20;;;0.20;;
66874;SDS011;53784;52.630;4.896;2022-08-04T02:29:28;0.10;;;0.10;;
66874;SDS011;53784;52.630;4.896;2022-08-04T02:32:06;0.10;;;0.10;;
66874;SDS011;53784;52.630;4.896;2022-08-04T02:34:41;0.10;;;0.10;;
66874;SDS011;53784;52.630;4.896;2022-08-04T02:37:11;0.15;;;0.15;;
66874;SDS011;53784;52.630;4.896;2022-08-04T02:39:40;0.10;;;0.10;;
66874;SDS011;53784;52.630;4.896;2022-08-04T02:42:06;0.10;;;0.10;;
66874;SDS011;53784;52.630;4.896;2022-08-04T02:44:32;0.10;;;0.10;;
66874;SDS011;53784;52.630;4.896;2022-08-04T02:47:00;0.10;;;0.10;;
66874;SDS011;53784;52.630;4.896;2022-08-04T02:49:25;0.10;;;0.10;;
66874;SDS011;53784;52.630;4.896;2022-08-04T02:51:53;0.10;;;0.10;;
66874;SDS011;53784;52.630;4.896;2022-08-04T02:54:24;0.10;;;0.10;;
66874;SDS011;53784;52.630;4.896;2022-08-04T02:56:52;0.10;;;0.10;;
66874;SDS011;53784;52.630;4.896;2022-08-04T02:59:20;0.10;;;0.10;;
66874;SDS011;53784;52.630;4.896;2022-08-04T03:01:49;0.43;;;0.20;;
66874;SDS011;53784;52.630;4.896;2022-08-04T03:04:19;0.10;;;0.10;;
66874;SDS011;53784;52.630;4.896;2022-08-04T03:06:58;0.10;;;0.10;;
66874;SDS011;53784;52.630;4.896;2022-08-04T03:12:29;0.20;;;0.20;;
66874;SDS011;53784;52.630;4.896;2022-08-04T03:17:58;0.13;;;0.13;;
66874;SDS011;53784;52.630;4.896;2022-08-04T03:20:49;1.25;;;1.00;;
66874;SDS011;53784;52.630;4.896;2022-08-04T03:28:40;0.10;;;0.10;;
66874;SDS011;53784;52.630;4.896;2022-08-04T03:36:35;0.10;;;0.10;;
66874;SDS011;53784;52.630;4.896;2022-08-04T03:39:30;0.35;;;0.22;;
66874;SDS011;53784;52.630;4.896;2022-08-04T03:48:31;0.10;;;0.10;;
66874;SDS011;53784;52.630;4.896;2022-08-04T03:51:32;0.10;;;0.10;;
66874;SDS011;53784;52.630;4.896;2022-08-04T04:00:02;0.10;;;0.10;;
66874;SDS011;53784;52.630;4.896;2022-08-04T04:08:05;0.13;;;0.13;;
66874;SDS011;53784;52.630;4.896;2022-08-04T04:13:49;0.10;;;0.10;;
66874;SDS011;53784;52.630;4.896;2022-08-04T04:19:18;0.10;;;0.10;;
66874;SDS011;53784;52.630;4.896;2022-08-04T04:24:27;0.10;;;0.10;;
66874;SDS011;53784;52.630;4.896;2022-08-04T04:27:01;0.40;;;0.25;;
66874;SDS011;53784;52.630;4.896;2022-08-04T04:49:50;0.10;;;0.10;;
66874;SDS011;53784;52.630;4.896;2022-08-04T04:52:29;0.10;;;0.10;;
66874;SDS011;53784;52.630;4.896;2022-08-04T04:55:06;0.20;;;0.20;;
66874;SDS011;53784;52.630;4.896;2022-08-04T04:57:37;0.10;;;0.10;;
66874;SDS011;53784;52.630;4.896;2022-08-04T05:00:07;0.20;;;0.20;;
66874;SDS011;53784;52.630;4.896;2022-08-04T05:13:56;0.20;;;0.20;;
66874;SDS011;53784;52.630;4.896;2022-08-04T05:16:30;0.10;;;0.10;;
66874;SDS011;53784;52.630;4.896;2022-08-04T05:19:11;0.20;;;0.20;;
66874;SDS011;53784;52.630;4.896;2022-08-04T05:24:07;0.10;;;0.10;;
66874;SDS011;53784;52.630;4.896;2022-08-04T05:26:36;0.10;;;0.10;;
66874;SDS011;53784;52.630;4.896;2022-08-04T05:29:12;0.10;;;0.10;;
66874;SDS011;53784;52.630;4.896;2022-08-04T05:31:43;0.10;;;0.10;;
66874;SDS011;53784;52.630;4.896;2022-08-04T05:34:14;0.10;;;0.10;;
66874;SDS011;53784;52.630;4.896;2022-08-04T05:39:43;0.17;;;0.17;;
66874;SDS011;53784;52.630;4.896;2022-08-04T05:42:10;0.10;;;0.10;;
66874;SDS011;53784;52.630;4.896;2022-08-04T05:44:36;0.10;;;0.10;;
66874;SDS011;53784;52.630;4.896;2022-08-04T05:47:02;0.10;;;0.10;;
66874;SDS011;53784;52.630;4.896;2022-08-04T05:49:28;0.20;;;0.20;;
66874;SDS011;53784;52.630;4.896;2022-08-04T05:51:55;0.40;;;0.40;;
66874;SDS011;53784;52.630;4.896;2022-08-04T05:54:23;0.20;;;0.20;;
66874;SDS011;53784;52.630;4.896;2022-08-04T05:56:48;0.20;;;0.20;;
66874;SDS011;53784;52.630;4.896;2022-08-04T05:59:15;0.10;;;0.10;;
66874;SDS011;53784;52.630;4.896;2022-08-04T06:01:41;0.22;;;0.22;;
66874;SDS011;53784;52.630;4.896;2022-08-04T06:04:07;0.20;;;0.20;;
66874;SDS011;53784;52.630;4.896;2022-08-04T06:06:32;0.20;;;0.20;;
66874;SDS011;53784;52.630;4.896;2022-08-04T06:08:58;0.10;;;0.10;;
66874;SDS011;53784;52.630;4.896;2022-08-04T06:11:26;0.20;;;0.20;;
66874;SDS011;53784;52.630;4.896;2022-08-04T06:13:53;0.20;;;0.20;;
66874;SDS011;53784;52.630;4.896;2022-08-04T06:16:22;0.20;;;0.20;;
66874;SDS011;53784;52.630;4.896;2022-08-04T06:18:49;0.30;;;0.20;;
66874;SDS011;53784;52.630;4.896;2022-08-04T06:21:17;0.10;;;0.10;;
66874;SDS011;53784;52.630;4.896;2022-08-04T06:23:45;0.20;;;0.20;;
66874;SDS011;53784;52.630;4.896;2022-08-04T06:26:11;0.47;;;0.47;;
66874;SDS011;53784;52.630;4.896;2022-08-04T06:28:43;0.10;;;0.10;;
66874;SDS011;53784;52.630;4.896;2022-08-04T06:31:13;0.20;;;0.20;;
66874;SDS011;53784;52.630;4.896;2022-08-04T06:33:45;0.20;;;0.20;;
66874;SDS011;53784;52.630;4.896;2022-08-04T06:36:12;0.15;;;0.15;;
66874;SDS011;53784;52.630;4.896;2022-08-04T06:38:38;0.35;;;0.20;;
66874;SDS011;53784;52.630;4.896;2022-08-04T06:41:04;0.20;;;0.20;;
66874;SDS011;53784;52.630;4.896;2022-08-04T06:43:33;0.20;;;0.20;;
66874;SDS011;53784;52.630;4.896;2022-08-04T06:46:01;0.20;;;0.20;;
66874;SDS011;53784;52.630;4.896;2022-08-04T06:48:28;0.20;;;0.20;;
66874;SDS011;53784;52.630;4.896;2022-08-04T06:50:53;0.20;;;0.20;;
66874;SDS011;53784;52.630;4.896;2022-08-04T06:53:19;0.30;;;0.30;;
66874;SDS011;53784;52.630;4.896;2022-08-04T06:55:45;0.30;;;0.30;;
66874;SDS011;53784;52.630;4.896;2022-08-04T06:58:11;0.30;;;0.30;;
66874;SDS011;53784;52.630;4.896;2022-08-04T07:00:37;0.30;;;0.30;;
66874;SDS011;53784;52.630;4.896;2022-08-04T07:03:03;0.40;;;0.40;;
66874;SDS011;53784;52.630;4.896;2022-08-04T07:05:29;0.30;;;0.30;;
66874;SDS011;53784;52.630;4.896;2022-08-04T07:07:55;0.47;;;0.47;;
66874;SDS011;53784;52.630;4.896;2022-08-04T07:10:21;0.68;;;0.63;;
66874;SDS011;53784;52.630;4.896;2022-08-04T07:12:47;0.40;;;0.40;;
66874;SDS011;53784;52.630;4.896;2022-08-04T07:15:13;0.40;;;0.40;;
66874;SDS011;53784;52.630;4.896;2022-08-04T07:17:40;0.50;;;0.47;;
66874;SDS011;53784;52.630;4.896;2022-08-04T07:20:06;0.40;;;0.40;;
66874;SDS011;53784;52.630;4.896;2022-08-04T07:22:32;0.57;;;0.47;;
66874;SDS011;53784;52.630;4.896;2022-08-04T07:24:58;0.50;;;0.40;;
66874;SDS011;53784;52.630;4.896;2022-08-04T07:27:24;0.52;;;0.40;;
66874;SDS011;53784;52.630;4.896;2022-08-04T07:29:50;0.82;;;0.50;;
66874;SDS011;53784;52.630;4.896;2022-08-04T07:32:16;0.85;;;0.52;;
66874;SDS011;53784;52.630;4.896;2022-08-04T07:34:43;0.88;;;0.50;;
66874;SDS011;53784;52.630;4.896;2022-08-04T07:37:08;0.95;;;0.55;;
66874;SDS011;53784;52.630;4.896;2022-08-04T07:39:34;1.20;;;0.70;;
66874;SDS011;53784;52.630;4.896;2022-08-04T07:42:01;1.30;;;0.80;;
66874;SDS011;53784;52.630;4.896;2022-08-04T07:44:30;1.30;;;0.70;;
66874;SDS011;53784;52.630;4.896;2022-08-04T07:46:56;1.27;;;0.70;;
66874;SDS011;53784;52.630;4.896;2022-08-04T07:49:22;1.50;;;0.80;;
66874;SDS011;53784;52.630;4.896;2022-08-04T07:51:49;1.50;;;0.80;;
66874;SDS011;53784;52.630;4.896;2022-08-04T07:54:15;1.80;;;1.00;;
66874;SDS011;53784;52.630;4.896;2022-08-04T07:56:41;1.60;;;0.80;;
66874;SDS011;53784;52.630;4.896;2022-08-04T07:59:07;2.45;;;1.35;;
66874;SDS011;53784;52.630;4.896;2022-08-04T08:01:33;1.50;;;0.90;;
66874;SDS011;53784;52.630;4.896;2022-08-04T08:03:59;1.60;;;0.95;;
66874;SDS011;53784;52.630;4.896;2022-08-04T08:06:25;1.63;;;1.00;;
66874;SDS011;53784;52.630;4.896;2022-08-04T08:08:54;1.70;;;1.02;;
66874;SDS011;53784;52.630;4.896;2022-08-04T08:11:21;1.80;;;1.10;;
66874;SDS011;53784;52.630;4.896;2022-08-04T08:13:47;1.75;;;1.17;;
66874;SDS011;53784;52.630;4.896;2022-08-04T08:16:12;1.80;;;1.20;;
66874;SDS011;53784;52.630;4.896;2022-08-04T08:18:38;1.90;;;1.30;;
66874;SDS011;53784;52.630;4.896;2022-08-04T08:21:03;1.80;;;1.30;;
66874;SDS011;53784;52.630;4.896;2022-08-04T08:23:30;1.90;;;1.50;;
66874;SDS011;53784;52.630;4.896;2022-08-04T08:25:59;1.90;;;1.50;;
66874;SDS011;53784;52.630;4.896;2022-08-04T08:28:24;2.00;;;1.55;;
66874;SDS011;53784;52.630;4.896;2022-08-04T08:30:50;1.98;;;1.55;;
66874;SDS011;53784;52.630;4.896;2022-08-04T08:33:15;2.00;;;1.53;;
66874;SDS011;53784;52.630;4.896;2022-08-04T08:35:48;2.00;;;1.60;;
66874;SDS011;53784;52.630;4.896;2022-08-04T08:38:18;2.10;;;1.80;;
66874;SDS011;53784;52.630;4.896;2022-08-04T08:40:57;2.10;;;1.80;;
66874;SDS011;53784;52.630;4.896;2022-08-04T08:46:10;2.20;;;2.00;;
66874;SDS011;53784;52.630;4.896;2022-08-04T08:52:14;2.30;;;2.10;;
66874;SDS011;53784;52.630;4.896;2022-08-04T09:00:46;2.50;;;2.30;;
66874;SDS011;53784;52.630;4.896;2022-08-04T09:12:01;2.10;;;1.80;;
66874;SDS011;53784;52.630;4.896;2022-08-04T09:14:34;1.90;;;1.57;;
66874;SDS011;53784;52.630;4.896;2022-08-04T09:17:21;1.80;;;1.30;;
66874;SDS011;53784;52.630;4.896;2022-08-04T09:19:56;1.70;;;1.20;;
66874;SDS011;53784;52.630;4.896;2022-08-04T09:22:27;1.80;;;1.20;;
66874;SDS011;53784;52.630;4.896;2022-08-04T09:25:02;1.80;;;1.10;;
66874;SDS011;53784;52.630;4.896;2022-08-04T09:27:51;1.70;;;1.00;;
66874;SDS011;53784;52.630;4.896;2022-08-04T09:30:31;1.60;;;1.05;;
66874;SDS011;53784;52.630;4.896;2022-08-04T09:36:11;1.70;;;1.10;;
66874;SDS011;53784;52.630;4.896;2022-08-04T09:38:41;1.67;;;1.00;;
66874;SDS011;53784;52.630;4.896;2022-08-04T09:46:12;1.00;;;0.60;;
66874;SDS011;53784;52.630;4.896;2022-08-04T09:51:33;0.95;;;0.60;;
66874;SDS011;53784;52.630;4.896;2022-08-04T09:56:40;0.65;;;0.50;;
66874;SDS011;53784;52.630;4.896;2022-08-04T10:01:35;0.90;;;0.60;;
66874;SDS011;53784;52.630;4.896;2022-08-04T10:04:03;0.88;;;0.55;;
66874;SDS011;53784;52.630;4.896;2022-08-04T10:17:21;1.50;;;0.98;;
66874;SDS011;53784;52.630;4.896;2022-08-04T10:28:27;1.80;;;1.30;;
66874;SDS011;53784;52.630;4.896;2022-08-04T10:30:56;1.80;;;1.30;;
66874;SDS011;53784;52.630;4.896;2022-08-04T10:33:24;1.70;;;1.02;;
66874;SDS011;53784;52.630;4.896;2022-08-04T10:36:03;1.60;;;0.90;;
66874;SDS011;53784;52.630;4.896;2022-08-04T10:38:39;1.60;;;0.80;;
66874;SDS011;53784;52.630;4.896;2022-08-04T10:43:42;1.60;;;0.90;;
66874;SDS011;53784;52.630;4.896;2022-08-04T10:46:16;1.60;;;0.90;;
66874;SDS011;53784;52.630;4.896;2022-08-04T10:49:01;1.70;;;1.00;;
66874;SDS011;53784;52.630;4.896;2022-08-04T10:51:35;1.60;;;0.98;;
66874;SDS011;53784;52.630;4.896;2022-08-04T10:54:07;1.58;;;0.82;;
66874;SDS011;53784;52.630;4.896;2022-08-04T10:56:49;1.60;;;0.80;;
66874;SDS011;53784;52.630;4.896;2022-08-04T10:59:23;1.70;;;1.00;;
66874;SDS011;53784;52.630;4.896;2022-08-04T11:01:53;1.70;;;1.00;;
66874;SDS011;53784;52.630;4.896;2022-08-04T11:04:22;1.60;;;0.90;;
66874;SDS011;53784;52.630;4.896;2022-08-04T11:06:50;1.70;;;1.00;;
66874;SDS011;53784;52.630;4.896;2022-08-04T11:09:17;1.88;;;1.33;;
66874;SDS011;53784;52.630;4.896;2022-08-04T11:11:44;2.30;;;2.03;;
66874;SDS011;53784;52.630;4.896;2022-08-04T11:14:14;2.55;;;2.35;;
66874;SDS011;53784;52.630;4.896;2022-08-04T11:16:45;3.30;;;3.00;;
66874;SDS011;53784;52.630;4.896;2022-08-04T11:22:26;1.75;;;1.20;;
66874;SDS011;53784;52.630;4.896;2022-08-04T11:30:08;1.67;;;1.10;;
66874;SDS011;53784;52.630;4.896;2022-08-04T11:32:36;2.22;;;1.42;;
66874;SDS011;53784;52.630;4.896;2022-08-04T11:35:09;1.80;;;1.25;;
66874;SDS011;53784;52.630;4.896;2022-08-04T11:37:45;1.90;;;1.50;;
66874;SDS011;53784;52.630;4.896;2022-08-04T11:40:21;2.00;;;1.70;;
66874;SDS011;53784;52.630;4.896;2022-08-04T11:42:55;2.30;;;2.10;;
66874;SDS011;53784;52.630;4.896;2022-08-04T11:45:24;2.30;;;2.10;;
66874;SDS011;53784;52.630;4.896;2022-08-04T11:47:57;2.20;;;2.00;;
66874;SDS011;53784;52.630;4.896;2022-08-04T11:50:29;2.35;;;2.15;;
66874;SDS011;53784;52.630;4.896;2022-08-04T11:52:58;2.88;;;2.67;;
66874;SDS011;53784;52.630;4.896;2022-08-04T11:55:24;3.00;;;2.80;;
66874;SDS011;53784;52.630;4.896;2022-08-04T11:57:51;3.10;;;2.90;;
66874;SDS011;53784;52.630;4.896;2022-08-04T12:00:16;3.40;;;3.10;;
66874;SDS011;53784;52.630;4.896;2022-08-04T12:05:32;2.65;;;2.45;;
66874;SDS011;53784;52.630;4.896;2022-08-04T12:18:46;1.40;;;0.70;;
66874;SDS011;53784;52.630;4.896;2022-08-04T12:21:41;1.40;;;0.70;;
66874;SDS011;53784;52.630;4.896;2022-08-04T12:24:13;1.15;;;0.60;;
66874;SDS011;53784;52.630;4.896;2022-08-04T12:26:43;1.10;;;0.60;;
66874;SDS011;53784;52.630;4.896;2022-08-04T12:29:18;1.52;;;0.80;;
66874;SDS011;53784;52.630;4.896;2022-08-04T12:31:48;1.52;;;0.80;;
66874;SDS011;53784;52.630;4.896;2022-08-04T12:37:12;1.10;;;0.60;;
66874;SDS011;53784;52.630;4.896;2022-08-04T12:40:00;0.90;;;0.60;;
66874;SDS011;53784;52.630;4.896;2022-08-04T12:45:08;0.95;;;0.60;;
66874;SDS011;53784;52.630;4.896;2022-08-04T12:47:34;0.80;;;0.50;;
66874;SDS011;53784;52.630;4.896;2022-08-04T12:50:01;0.52;;;0.43;;
66874;SDS011;53784;52.630;4.896;2022-08-04T12:52:33;0.60;;;0.50;;
66874;SDS011;53784;52.630;4.896;2022-08-04T12:55:06;0.50;;;0.40;;
66874;SDS011;53784;52.630;4.896;2022-08-04T12:57:32;0.50;;;0.40;;
66874;SDS011;53784;52.630;4.896;2022-08-04T12:59:58;0.50;;;0.40;;
66874;SDS011;53784;52.630;4.896;2022-08-04T13:02:25;0.60;;;0.40;;
66874;SDS011;53784;52.630;4.896;2022-08-04T13:04:54;0.50;;;0.50;;
66874;SDS011;53784;52.630;4.896;2022-08-04T13:07:23;0.60;;;0.50;;
66874;SDS011;53784;52.630;4.896;2022-08-04T13:09:51;0.50;;;0.40;;
66874;SDS011;53784;52.630;4.896;2022-08-04T13:12:20;0.40;;;0.40;;
66874;SDS011;53784;52.630;4.896;2022-08-04T13:14:50;0.50;;;0.40;;
66874;SDS011;53784;52.630;4.896;2022-08-04T13:17:16;0.40;;;0.40;;
66874;SDS011;53784;52.630;4.896;2022-08-04T13:19:47;0.43;;;0.40;;
66874;SDS011;53784;52.630;4.896;2022-08-04T13:22:22;0.40;;;0.40;;
66874;SDS011;53784;52.630;4.896;2022-08-04T13:24:51;0.40;;;0.40;;
66874;SDS011;53784;52.630;4.896;2022-08-04T13:27:17;0.30;;;0.30;;
66874;SDS011;53784;52.630;4.896;2022-08-04T13:29:44;0.43;;;0.40;;
66874;SDS011;53784;52.630;4.896;2022-08-04T13:32:14;0.40;;;0.40;;
66874;SDS011;53784;52.630;4.896;2022-08-04T13:37:06;0.40;;;0.40;;
66874;SDS011;53784;52.630;4.896;2022-08-04T13:39:34;0.50;;;0.40;;
66874;SDS011;53784;52.630;4.896;2022-08-04T13:42:02;0.30;;;0.30;;
66874;SDS011;53784;52.630;4.896;2022-08-04T13:44:33;0.30;;;0.30;;
66874;SDS011;53784;52.630;4.896;2022-08-04T13:47:02;0.30;;;0.30;;
66874;SDS011;53784;52.630;4.896;2022-08-04T13:49:30;0.40;;;0.40;;
66874;SDS011;53784;52.630;4.896;2022-08-04T13:52:02;0.28;;;0.28;;
66874;SDS011;53784;52.630;4.896;2022-08-04T13:57:05;0.38;;;0.30;;
66874;SDS011;53784;52.630;4.896;2022-08-04T13:59:35;0.30;;;0.30;;
66874;SDS011;53784;52.630;4.896;2022-08-04T14:02:06;0.30;;;0.30;;
66874;SDS011;53784;52.630;4.896;2022-08-04T14:04:35;0.63;;;0.60;;
66874;SDS011;53784;52.630;4.896;2022-08-04T14:07:12;0.30;;;0.30;;
66874;SDS011;53784;52.630;4.896;2022-08-04T14:09:39;0.20;;;0.20;;
66874;SDS011;53784;52.630;4.896;2022-08-04T14:12:09;0.20;;;0.20;;
66874;SDS011;53784;52.630;4.896;2022-08-04T14:14:43;0.40;;;0.30;;
66874;SDS011;53784;52.630;4.896;2022-08-04T14:17:11;0.20;;;0.20;;
66874;SDS011;53784;52.630;4.896;2022-08-04T14:19:54;0.20;;;0.20;;
66874;SDS011;53784;52.630;4.896;2022-08-04T14:24:58;0.20;;;0.20;;
66874;SDS011;53784;52.630;4.896;2022-08-04T14:27:39;0.68;;;0.63;;
66874;SDS011;53784;52.630;4.896;2022-08-04T14:30:29;0.20;;;0.20;;
66874;SDS011;53784;52.630;4.896;2022-08-04T14:33:05;0.30;;;0.30;;
66874;SDS011;53784;52.630;4.896;2022-08-04T14:35:32;0.43;;;0.30;;
66874;SDS011;53784;52.630;4.896;2022-08-04T14:38:00;0.20;;;0.20;;
66874;SDS011;53784;52.630;4.896;2022-08-04T14:40:28;0.30;;;0.30;;
66874;SDS011;53784;52.630;4.896;2022-08-04T14:42:55;0.30;;;0.30;;
66874;SDS011;53784;52.630;4.896;2022-08-04T14:45:28;0.20;;;0.20;;
66874;SDS011;53784;52.630;4.896;2022-08-04T14:48:13;0.30;;;0.30;;
66874;SDS011;53784;52.630;4.896;2022-08-04T14:50:42;0.28;;;0.28;;
66874;SDS011;53784;52.630;4.896;2022-08-04T14:53:10;0.30;;;0.30;;
66874;SDS011;53784;52.630;4.896;2022-08-04T14:55:38;0.30;;;0.30;;
66874;SDS011;53784;52.630;4.896;2022-08-04T14:58:06;0.30;;;0.30;;
66874;SDS011;53784;52.630;4.896;2022-08-04T15:00:33;0.20;;;0.20;;
66874;SDS011;53784;52.630;4.896;2022-08-04T15:03:09;0.20;;;0.20;;
66874;SDS011;53784;52.630;4.896;2022-08-04T15:05:35;0.52;;;0.30;;
66874;SDS011;53784;52.630;4.896;2022-08-04T15:08:03;0.20;;;0.20;;
66874;SDS011;53784;52.630;4.896;2022-08-04T15:10:29;0.20;;;0.20;;
66874;SDS011;53784;52.630;4.896;2022-08-04T15:12:54;0.20;;;0.20;;
66874;SDS011;53784;52.630;4.896;2022-08-04T15:15:20;0.20;;;0.20;;
66874;SDS011;53784;52.630;4.896;2022-08-04T15:17:46;0.20;;;0.20;;
66874;SDS011;53784;52.630;4.896;2022-08-04T15:20:12;0.20;;;0.20;;
66874;SDS011;53784;52.630;4.896;2022-08-04T15:22:37;0.20;;;0.20;;
66874;SDS011;53784;52.630;4.896;2022-08-04T15:25:03;0.20;;;0.20;;
66874;SDS011;53784;52.630;4.896;2022-08-04T15:27:30;0.20;;;0.20;;
66874;SDS011;53784;52.630;4.896;2022-08-04T15:29:59;0.20;;;0.20;;
66874;SDS011;53784;52.630;4.896;2022-08-04T15:32:27;0.20;;;0.20;;
66874;SDS011;53784;52.630;4.896;2022-08-04T15:34:59;0.20;;;0.20;;
66874;SDS011;53784;52.630;4.896;2022-08-04T15:37:27;0.20;;;0.20;;
66874;SDS011;53784;52.630;4.896;2022-08-04T15:40:07;0.20;;;0.20;;
66874;SDS011;53784;52.630;4.896;2022-08-04T15:42:46;0.20;;;0.20;;
66874;SDS011;53784;52.630;4.896;2022-08-04T15:45:20;0.20;;;0.20;;
66874;SDS011;53784;52.630;4.896;2022-08-04T15:50:24;0.20;;;0.20;;
66874;SDS011;53784;52.630;4.896;2022-08-04T15:55:35;0.20;;;0.20;;
66874;SDS011;53784;52.630;4.896;2022-08-04T15:58:02;0.20;;;0.20;;
66874;SDS011;53784;52.630;4.896;2022-08-04T16:01:23;0.30;;;0.30;;
66874;SDS011;53784;52.630;4.896;2022-08-04T16:06:43;0.20;;;0.20;;
66874;SDS011;53784;52.630;4.896;2022-08-04T16:11:35;0.23;;;0.23;;
66874;SDS011;53784;52.630;4.896;2022-08-04T16:16:26;0.23;;;0.23;;
66874;SDS011;53784;52.630;4.896;2022-08-04T16:18:51;0.20;;;0.20;;
66874;SDS011;53784;52.630;4.896;2022-08-04T16:21:18;0.73;;;0.38;;
66874;SDS011;53784;52.630;4.896;2022-08-04T16:29:00;0.30;;;0.30;;
66874;SDS011;53784;52.630;4.896;2022-08-04T16:31:25;0.20;;;0.20;;
66874;SDS011;53784;52.630;4.896;2022-08-04T16:33:50;0.20;;;0.20;;
66874;SDS011;53784;52.630;4.896;2022-08-04T16:36:27;0.20;;;0.20;;
66874;SDS011;53784;52.630;4.896;2022-08-04T16:39:19;0.20;;;0.20;;
66874;SDS011;53784;52.630;4.896;2022-08-04T16:41:45;0.20;;;0.20;;
66874;SDS011;53784;52.630;4.896;2022-08-04T16:46:56;0.30;;;0.30;;
66874;SDS011;53784;52.630;4.896;2022-08-04T16:49:22;0.20;;;0.20;;
66874;SDS011;53784;52.630;4.896;2022-08-04T16:51:49;0.22;;;0.22;;
66874;SDS011;53784;52.630;4.896;2022-08-04T16:54:15;0.20;;;0.20;;
66874;SDS011;53784;52.630;4.896;2022-08-04T16:56:40;0.20;;;0.20;;
66874;SDS011;53784;52.630;4.896;2022-08-04T16:59:10;0.10;;;0.10;;
66874;SDS011;53784;52.630;4.896;2022-08-04T17:01:36;0.20;;;0.20;;
66874;SDS011;53784;52.630;4.896;2022-08-04T17:04:03;0.20;;;0.20;;
66874;SDS011;53784;52.630;4.896;2022-08-04T17:06:36;0.20;;;0.20;;
66874;SDS011;53784;52.630;4.896;2022-08-04T17:09:05;0.20;;;0.20;;
66874;SDS011;53784;52.630;4.896;2022-08-04T17:11:34;0.20;;;0.20;;
66874;SDS011;53784;52.630;4.896;2022-08-04T17:14:00;0.20;;;0.20;;
66874;SDS011;53784;52.630;4.896;2022-08-04T17:16:25;0.32;;;0.30;;
66874;SDS011;53784;52.630;4.896;2022-08-04T17:18:53;0.10;;;0.10;;
66874;SDS011;53784;52.630;4.896;2022-08-04T17:21:21;0.15;;;0.15;;
66874;SDS011;53784;52.630;4.896;2022-08-04T17:23:48;0.10;;;0.10;;
66874;SDS011;53784;52.630;4.896;2022-08-04T17:26:18;0.20;;;0.20;;
66874;SDS011;53784;52.630;4.896;2022-08-04T17:28:48;0.43;;;0.40;;
66874;SDS011;53784;52.630;4.896;2022-08-04T17:31:15;0.20;;;0.20;;
66874;SDS011;53784;52.630;4.896;2022-08-04T17:33:45;0.20;;;0.20;;
66874;SDS011;53784;52.630;4.896;2022-08-04T17:36:12;0.20;;;0.20;;
66874;SDS011;53784;52.630;4.896;2022-08-04T17:41:08;0.20;;;0.20;;
66874;SDS011;53784;52.630;4.896;2022-08-04T17:48:42;0.40;;;0.40;;
66874;SDS011;53784;52.630;4.896;2022-08-04T17:51:14;0.20;;;0.20;;
66874;SDS011;53784;52.630;4.896;2022-08-04T17:53:40;0.20;;;0.20;;
66874;SDS011;53784;52.630;4.896;2022-08-04T17:56:06;0.20;;;0.20;;
66874;SDS011;53784;52.630;4.896;2022-08-04T18:01:39;0.30;;;0.28;;
66874;SDS011;53784;52.630;4.896;2022-08-04T18:04:54;0.13;;;0.13;;
66874;SDS011;53784;52.630;4.896;2022-08-04T18:06:59;0.82;;;0.75;;
66874;SDS011;53784;52.630;4.896;2022-08-04T18:09:29;0.20;;;0.20;;
66874;SDS011;53784;52.630;4.896;2022-08-04T18:11:57;0.20;;;0.20;;
66874;SDS011;53784;52.630;4.896;2022-08-04T18:14:24;0.30;;;0.30;;
66874;SDS011;53784;52.630;4.896;2022-08-04T18:16:50;0.20;;;0.20;;
66874;SDS011;53784;52.630;4.896;2022-08-04T18:19:16;0.13;;;0.13;;
66874;SDS011;53784;52.630;4.896;2022-08-04T18:21:41;0.20;;;0.20;;
66874;SDS011;53784;52.630;4.896;2022-08-04T18:24:11;0.20;;;0.20;;
66874;SDS011;53784;52.630;4.896;2022-08-04T18:26:37;0.10;;;0.10;;
66874;SDS011;53784;52.630;4.896;2022-08-04T18:29:04;0.10;;;0.10;;
66874;SDS011;53784;52.630;4.896;2022-08-04T18:31:31;0.10;;;0.10;;
66874;SDS011;53784;52.630;4.896;2022-08-04T18:33:57;0.10;;;0.10;;
66874;SDS011;53784;52.630;4.896;2022-08-04T18:36:23;0.43;;;0.20;;
66874;SDS011;53784;52.630;4.896;2022-08-04T18:38:48;0.10;;;0.10;;
66874;SDS011;53784;52.630;4.896;2022-08-04T18:41:13;0.10;;;0.10;;
66874;SDS011;53784;52.630;4.896;2022-08-04T18:43:39;0.20;;;0.20;;
66874;SDS011;53784;52.630;4.896;2022-08-04T18:46:04;0.10;;;0.10;;
66874;SDS011;53784;52.630;4.896;2022-08-04T18:48:29;0.25;;;0.25;;
66874;SDS011;53784;52.630;4.896;2022-08-04T18:50:55;0.10;;;0.10;;
66874;SDS011;53784;52.630;4.896;2022-08-04T18:53:20;0.15;;;0.15;;
66874;SDS011;53784;52.630;4.896;2022-08-04T18:55:46;0.20;;;0.20;;
66874;SDS011;53784;52.630;4.896;2022-08-04T18:58:11;0.22;;;0.22;;
66874;SDS011;53784;52.630;4.896;2022-08-04T19:00:36;0.20;;;0.20;;
66874;SDS011;53784;52.630;4.896;2022-08-04T19:03:01;0.10;;;0.10;;